createdAt,value
2019-05-19T00:04:23.808Z,99760.30
2019-05-19T00:09:27.233Z,99765.68
2019-05-19T00:14:30.646Z,99768.88
2019-05-19T00:19:34.088Z,99758.39
2019-05-19T00:24:37.518Z,99755.09
2019-05-19T00:29:40.958Z,99760.22
2019-05-19T00:34:44.477Z,99759.38
2019-05-19T00:39:47.977Z,99757.30
2019-05-19T00:44:51.502Z,99757.06
2019-05-19T00:49:54.942Z,99756.63
2019-05-19T00:54:58.357Z,99753.17
2019-05-19T01:00:02.361Z,99752.02
2019-05-19T01:05:07.907Z,99750.32
2019-05-19T01:10:12.068Z,99747.67
2019-05-19T01:15:16.497Z,99744.44
2019-05-19T01:20:20.061Z,99738.12
2019-05-19T01:25:23.477Z,99728.20
2019-05-19T01:30:26.982Z,99728.31
2019-05-19T01:35:30.391Z,99719.34
2019-05-19T01:40:33.809Z,99716.76
2019-05-19T01:45:38.045Z,99717.87
2019-05-19T01:50:41.544Z,99718.87
2019-05-19T01:55:44.958Z,99723.42
2019-05-19T02:00:48.480Z,99724.81
2019-05-19T02:05:51.923Z,99723.48
2019-05-19T02:10:55.358Z,99720.30
2019-05-19T02:15:58.788Z,99717.66
2019-05-19T02:21:02.257Z,99719.84
2019-05-19T02:26:05.733Z,99715.13
2019-05-19T02:31:09.159Z,99707.17
2019-05-19T02:36:12.595Z,99704.15
2019-05-19T02:41:18.051Z,99707.68
2019-05-19T02:46:22.625Z,99708.41
2019-05-19T02:51:28.925Z,99712.45
2019-05-19T02:56:33.481Z,99708.73
2019-05-19T03:01:38.741Z,99711.75
2019-05-19T03:06:42.444Z,99706.22
2019-05-19T03:11:45.968Z,99699.83
2019-05-19T03:16:49.406Z,99710.32
2019-05-19T03:21:52.836Z,99709.72
2019-05-19T03:26:56.271Z,99697.73
2019-05-19T03:32:11.556Z,99698.95
2019-05-19T03:37:12.263Z,99702.78
2019-05-19T03:42:15.698Z,99694.24
2019-05-19T03:47:19.159Z,99700.90
2019-05-19T03:52:22.599Z,99694.53
2019-05-19T03:57:26.020Z,99700.88
2019-05-19T04:02:29.441Z,99703.11
2019-05-19T04:07:32.852Z,99705.92
2019-05-19T04:12:36.328Z,99713.08
2019-05-19T04:17:39.782Z,99717.66
2019-05-19T04:22:43.280Z,99717.88
2019-05-19T04:27:47.238Z,99718.59
2019-05-19T04:32:50.701Z,99719.75
2019-05-19T04:37:54.128Z,99716.16
2019-05-19T04:42:57.562Z,99712.64
2019-05-19T04:48:00.981Z,99720.80
2019-05-19T04:53:04.403Z,99717.88
2019-05-19T04:58:07.831Z,99711.14
2019-05-19T05:03:11.294Z,99709.56
2019-05-19T05:08:28.900Z,99714.91
2019-05-19T05:13:19.880Z,99714.40
2019-05-19T05:18:23.306Z,99719.20
2019-05-19T05:23:26.755Z,99719.11
2019-05-19T05:28:30.214Z,99716.99
2019-05-19T05:33:33.702Z,99720.88
2019-05-19T05:38:37.151Z,99729.73
2019-05-19T05:43:40.588Z,99725.03
2019-05-19T05:48:44.041Z,99726.73
2019-05-19T05:53:47.464Z,99726.36
2019-05-19T05:58:50.954Z,99726.50
2019-05-19T06:03:54.366Z,99731.58
2019-05-19T06:08:57.803Z,99725.09
2019-05-19T06:14:01.294Z,99726.47
2019-05-19T06:19:04.706Z,99730.09
2019-05-19T06:24:08.136Z,99723.45
2019-05-19T06:29:11.564Z,99726.66
2019-05-19T06:34:14.992Z,99725.19
2019-05-19T06:39:18.440Z,99727.84
2019-05-19T06:44:21.922Z,99733.53
2019-05-19T06:49:25.300Z,99727.37
2019-05-19T06:54:28.792Z,99734.10
2019-05-19T06:59:32.257Z,99731.98
2019-05-19T07:04:35.706Z,99731.30
2019-05-19T07:09:39.135Z,99724.73
2019-05-19T07:14:42.584Z,99721.20
2019-05-19T07:19:46.038Z,99728.00
2019-05-19T07:24:49.693Z,99719.38
2019-05-19T07:29:53.157Z,99716.40
2019-05-19T07:34:56.531Z,99707.70
2019-05-19T07:39:59.981Z,99701.77
2019-05-19T07:45:04.503Z,99704.42
2019-05-19T07:50:08.093Z,99703.78
2019-05-19T07:55:11.643Z,99706.05
2019-05-19T08:00:16.450Z,99705.30
2019-05-19T08:05:19.895Z,99701.13
2019-05-19T08:10:23.317Z,99702.44
2019-05-19T08:15:26.768Z,99703.36
2019-05-19T08:20:30.199Z,99698.80
2019-05-19T08:25:33.627Z,99693.22
2019-05-19T08:30:37.058Z,99689.31
2019-05-19T08:35:40.564Z,99689.09
2019-05-19T08:40:44.007Z,99691.80
2019-05-19T08:45:47.426Z,99689.45
2019-05-19T08:50:50.862Z,99686.41
2019-05-19T08:55:54.382Z,99679.11
2019-05-19T09:00:57.824Z,99675.47
2019-05-19T09:06:01.240Z,99677.14
2019-05-19T09:11:04.738Z,99670.89
2019-05-19T09:16:08.178Z,99672.87
2019-05-19T09:21:11.642Z,99664.47
2019-05-19T09:26:15.047Z,99653.81
2019-05-19T09:31:18.482Z,99659.34
2019-05-19T09:36:21.922Z,99649.52
2019-05-19T09:41:25.369Z,99643.72
2019-05-19T09:46:28.781Z,99640.00
2019-05-19T09:51:32.197Z,99640.91
2019-05-19T09:56:35.617Z,99631.26
2019-05-19T10:01:39.060Z,99628.61
2019-05-19T10:06:42.580Z,99626.67
2019-05-19T10:12:03.443Z,99627.31
2019-05-19T10:17:06.904Z,99634.21
2019-05-19T10:22:10.317Z,99624.63
2019-05-19T10:27:13.738Z,99619.80
2019-05-19T10:32:17.270Z,99614.73
2019-05-19T10:37:20.729Z,99617.45
2019-05-19T10:42:24.156Z,99614.48
2019-05-19T10:47:27.586Z,99606.70
2019-05-19T10:52:31.061Z,99601.41
2019-05-19T10:57:34.489Z,99600.11
2019-05-19T11:02:37.899Z,99595.48
2019-05-19T11:07:41.570Z,99601.19
2019-05-19T11:12:46.912Z,99594.30
2019-05-19T11:17:50.599Z,99584.41
2019-05-19T11:22:54.127Z,99582.53
2019-05-19T11:27:58.155Z,99582.37
2019-05-19T11:33:01.533Z,99577.22
2019-05-19T11:38:04.969Z,99567.19
2019-05-19T11:43:08.452Z,99575.45
2019-05-19T11:48:11.873Z,99565.99
2019-05-19T11:53:15.339Z,99567.05
2019-05-19T11:58:18.794Z,99573.20
2019-05-19T12:03:22.183Z,99570.30
2019-05-19T12:08:25.703Z,99573.27
2019-05-19T12:13:29.169Z,99569.67
2019-05-19T12:18:32.586Z,99557.77
2019-05-19T12:23:36.025Z,99537.16
2019-05-19T12:28:39.431Z,99550.98
2019-05-19T12:33:51.653Z,99547.97
2019-05-19T12:38:48.082Z,99550.27
2019-05-19T12:43:51.472Z,99551.16
2019-05-19T12:48:54.931Z,99559.20
2019-05-19T12:53:58.352Z,99544.27
2019-05-19T12:59:01.762Z,99546.64
2019-05-19T13:04:05.235Z,99543.58
2019-05-19T13:09:09.405Z,99536.06
2019-05-19T13:14:12.893Z,99543.26
2019-05-19T13:19:16.347Z,99532.11
2019-05-19T13:24:19.767Z,99529.05
2019-05-19T13:29:23.177Z,99532.40
2019-05-19T13:34:26.624Z,99526.71
2019-05-19T13:39:30.064Z,99532.07
2019-05-19T13:44:33.486Z,99525.51
2019-05-19T13:49:36.910Z,99518.41
2019-05-19T13:54:40.351Z,99522.17
2019-05-19T13:59:43.794Z,99517.68
2019-05-19T14:04:47.247Z,99527.14
2019-05-19T14:09:50.702Z,99551.80
2019-05-19T14:14:54.176Z,99568.17
2019-05-19T14:19:57.602Z,99577.59
2019-05-19T14:25:01.037Z,99576.39
2019-05-19T14:30:06.625Z,99579.00
2019-05-19T14:35:10.290Z,99570.16
2019-05-19T14:40:14.570Z,99568.22
2019-05-19T14:45:18.968Z,99586.19
2019-05-19T14:50:22.541Z,99584.41
2019-05-19T14:55:25.964Z,99577.23
2019-05-19T15:00:29.409Z,99573.42
2019-05-19T15:05:32.872Z,99575.25
2019-05-19T15:10:36.302Z,99576.27
2019-05-19T15:15:39.735Z,99581.92
2019-05-19T15:25:45.540Z,99576.61
2019-05-19T15:30:48.983Z,99580.34
2019-05-19T15:35:52.400Z,99582.03
2019-05-19T15:40:55.807Z,99574.16
2019-05-19T15:45:59.263Z,99571.75
2019-05-19T15:51:02.715Z,99559.30
2019-05-19T15:56:06.157Z,99555.55
2019-05-19T16:01:09.702Z,99553.16
2019-05-19T16:06:13.103Z,99552.08
2019-05-19T16:11:16.517Z,99545.29
2019-05-19T16:16:19.954Z,99547.13
2019-05-19T16:21:23.395Z,99549.33
2019-05-19T16:26:26.822Z,99547.63
2019-05-19T16:31:30.241Z,99547.63
2019-05-19T16:36:33.692Z,99551.03
2019-05-19T16:41:37.281Z,99540.09
2019-05-19T16:46:40.800Z,99544.16
2019-05-19T16:51:44.415Z,99548.22
2019-05-19T16:56:47.860Z,99549.66
2019-05-19T17:01:51.338Z,99550.11
2019-05-19T17:06:54.727Z,99532.36
2019-05-19T17:11:58.152Z,99532.36
2019-05-19T17:17:01.593Z,99540.94
2019-05-19T17:22:06.051Z,99542.28
2019-05-19T17:27:09.592Z,99520.25
2019-05-19T17:32:13.006Z,99520.25
2019-05-19T17:37:16.456Z,99509.50
2019-05-19T17:42:19.903Z,99509.50
2019-05-19T17:47:23.424Z,99517.22
2019-05-19T17:52:27.261Z,99515.05
2019-05-19T17:57:32.343Z,99525.56
2019-05-19T18:02:35.773Z,99522.24
2019-05-19T18:07:39.226Z,99535.30
2019-05-19T18:12:42.663Z,99549.66
2019-05-19T18:17:46.125Z,99560.88
2019-05-19T18:22:49.803Z,99565.08
2019-05-19T18:27:54.017Z,99579.70
2019-05-19T18:32:57.467Z,99589.45
2019-05-19T18:38:00.950Z,99600.32
2019-05-19T18:43:04.440Z,99620.16
2019-05-19T18:48:07.866Z,99628.30
2019-05-19T18:53:11.300Z,99628.33
2019-05-19T18:58:14.698Z,99630.41
2019-05-19T19:03:18.114Z,99620.41
2019-05-19T19:08:22.361Z,99616.24
2019-05-19T19:13:25.808Z,99620.87
2019-05-19T19:18:29.605Z,99619.73
2019-05-19T19:23:33.041Z,99616.20
2019-05-19T19:28:36.473Z,99621.84
2019-05-19T19:33:39.890Z,99622.48
2019-05-19T19:38:43.315Z,99617.09
2019-05-19T19:43:47.632Z,99626.87
2019-05-19T19:48:51.062Z,99626.02
2019-05-19T19:53:54.486Z,99630.60
2019-05-19T19:58:57.911Z,99629.07
2019-05-19T20:04:01.345Z,99636.19
2019-05-19T20:09:06.364Z,99637.03
2019-05-19T20:14:09.808Z,99637.45
2019-05-19T20:19:13.223Z,99639.56
2019-05-19T20:24:16.730Z,99644.00
2019-05-19T20:29:20.183Z,99647.80
2019-05-19T20:34:23.599Z,99647.95
2019-05-19T20:39:27.058Z,99653.86
2019-05-19T20:44:30.500Z,99657.81
2019-05-19T20:49:33.931Z,99657.62
2019-05-19T20:54:37.379Z,99663.59
2019-05-19T20:59:42.402Z,99656.72
2019-05-19T21:04:45.910Z,99657.09
2019-05-19T21:09:49.364Z,99654.64
2019-05-19T21:14:52.875Z,99648.99
2019-05-19T21:19:56.311Z,99648.52
2019-05-19T21:24:59.769Z,99649.22
2019-05-19T21:30:03.428Z,99658.44
2019-05-19T21:35:07.239Z,99667.02
2019-05-19T21:40:10.691Z,99660.61
2019-05-19T21:45:16.554Z,99657.19
2019-05-19T21:50:19.992Z,99666.61
2019-05-19T21:55:23.686Z,99659.28
2019-05-19T22:00:29.291Z,99671.32
2019-05-19T22:05:32.727Z,99672.17
2019-05-19T22:10:36.161Z,99674.16
2019-05-19T22:15:39.759Z,99671.84
2019-05-19T22:20:43.220Z,99674.16
2019-05-19T22:25:46.646Z,99669.75
2019-05-19T22:30:50.064Z,99684.16
2019-05-19T22:35:53.483Z,99677.19
2019-05-19T22:40:56.916Z,99671.76
2019-05-19T22:46:00.352Z,99667.69
2019-05-19T22:51:03.761Z,99670.08
2019-05-19T22:56:07.214Z,99657.59
2019-05-19T23:01:10.766Z,99646.69
2019-05-19T23:06:14.208Z,99642.77
2019-05-19T23:11:17.634Z,99653.11
2019-05-19T23:16:21.132Z,99645.21
2019-05-19T23:21:24.561Z,99645.16
2019-05-19T23:26:27.983Z,99644.27
2019-05-19T23:31:31.414Z,99643.89
2019-05-19T23:36:34.833Z,99645.48
2019-05-19T23:41:38.247Z,99643.31
2019-05-19T23:46:41.679Z,99638.72
2019-05-19T23:51:45.096Z,99640.84
2019-05-19T23:56:48.531Z,99632.67
